createdAt,value
2023-07-04T00:01:10.987Z,35.00
2023-07-04T00:03:40.341Z,33.95
2023-07-04T00:06:09.311Z,34.65
2023-07-04T00:08:36.151Z,34.00
2023-07-04T00:11:07.608Z,34.25
2023-07-04T00:13:36.721Z,36.13
2023-07-04T00:16:07.929Z,33.88
2023-07-04T00:18:37.674Z,35.08
2023-07-04T00:21:06.167Z,35.67
2023-07-04T00:23:35.738Z,36.35
2023-07-04T00:26:07.395Z,35.72
2023-07-04T00:28:35.492Z,34.08
2023-07-04T00:31:04.148Z,35.92
2023-07-04T00:33:34.715Z,33.92
2023-07-04T00:36:06.662Z,33.67
2023-07-04T00:38:34.716Z,33.63
2023-07-04T00:41:07.501Z,36.92
2023-07-04T00:44:02.925Z,33.95
2023-07-04T00:46:41.472Z,35.75
2023-07-04T00:49:24.338Z,34.60
2023-07-04T00:52:05.389Z,34.03
2023-07-04T00:54:46.369Z,33.80
2023-07-04T00:57:14.889Z,34.65
2023-07-04T00:59:45.786Z,34.15
2023-07-04T01:02:20.903Z,34.38
2023-07-04T01:04:50.377Z,32.42
2023-07-04T01:07:33.166Z,32.63
2023-07-04T01:10:27.809Z,36.08
2023-07-04T01:12:55.347Z,33.53
2023-07-04T01:15:24.685Z,33.55
2023-07-04T01:17:54.863Z,36.17
2023-07-04T01:20:21.904Z,36.15
2023-07-04T01:23:00.795Z,34.97
2023-07-04T01:25:42.693Z,33.75
2023-07-04T01:28:10.143Z,31.90
2023-07-04T01:30:40.080Z,31.90
2023-07-04T01:33:09.611Z,33.30
2023-07-04T01:35:37.524Z,33.55
2023-07-04T01:38:07.079Z,35.25
2023-07-04T01:40:35.599Z,33.25
2023-07-04T01:43:03.774Z,33.92
2023-07-04T01:45:31.012Z,35.65
2023-07-04T01:47:57.961Z,33.63
2023-07-04T01:50:24.988Z,36.42
2023-07-04T01:52:51.825Z,32.40
2023-07-04T01:55:20.090Z,33.00
2023-07-04T01:57:47.681Z,35.03
2023-07-04T02:04:42.551Z,34.20
2023-07-04T02:07:09.717Z,34.88
2023-07-04T02:09:36.517Z,33.63
2023-07-04T02:12:03.342Z,31.92
2023-07-04T02:14:30.079Z,32.78
2023-07-04T02:16:56.971Z,30.20
2023-07-04T02:19:23.830Z,33.80
2023-07-04T02:21:50.742Z,33.28
2023-07-04T02:24:17.635Z,35.38
2023-07-04T02:26:44.430Z,32.13
2023-07-04T02:29:11.222Z,32.13
2023-07-04T02:31:38.076Z,32.92
2023-07-04T02:34:04.861Z,34.13
2023-07-04T02:36:33.489Z,31.88
2023-07-04T02:39:00.395Z,31.95
2023-07-04T02:41:27.392Z,31.67
2023-07-04T02:43:55.038Z,33.65
2023-07-04T02:46:21.871Z,32.25
2023-07-04T02:48:53.109Z,34.35
2023-07-04T02:51:20.010Z,33.83
2023-07-04T02:53:47.661Z,31.67
2023-07-04T02:56:14.471Z,35.58
2023-07-04T02:58:41.580Z,33.55
2023-07-04T03:01:08.740Z,33.00
2023-07-04T03:03:36.527Z,31.50
2023-07-04T03:06:06.158Z,32.85
2023-07-04T03:08:34.760Z,32.08
2023-07-04T03:11:03.145Z,31.52
2023-07-04T03:13:34.960Z,35.50
2023-07-04T03:16:02.450Z,32.95
2023-07-04T03:18:29.481Z,33.45
2023-07-04T03:20:56.747Z,32.60
2023-07-04T03:23:23.604Z,32.17
2023-07-04T03:25:50.873Z,33.15
2023-07-04T03:28:18.827Z,32.30
2023-07-04T03:30:46.564Z,32.03
2023-07-04T03:33:14.530Z,34.38
2023-07-04T03:35:57.171Z,34.45
2023-07-04T03:38:25.666Z,33.13
2023-07-04T03:40:52.882Z,33.45
2023-07-04T03:43:20.193Z,35.42
2023-07-04T03:45:49.890Z,31.45
2023-07-04T03:48:16.859Z,37.00
2023-07-04T03:50:45.613Z,32.45
2023-07-04T03:53:12.441Z,32.00
2023-07-04T03:55:39.310Z,30.08
2023-07-04T03:58:06.747Z,32.97
2023-07-04T04:00:33.875Z,31.80
2023-07-04T04:03:01.015Z,33.28
2023-07-04T04:05:29.531Z,31.95
2023-07-04T04:07:56.376Z,33.15
2023-07-04T04:10:23.426Z,35.00
2023-07-04T04:12:50.226Z,31.98
2023-07-04T04:15:17.146Z,33.78
2023-07-04T04:17:44.018Z,32.53
2023-07-04T04:20:13.710Z,35.03
2023-07-04T04:22:46.286Z,31.42
2023-07-04T04:27:42.084Z,34.78
2023-07-04T04:30:12.026Z,34.20
2023-07-04T04:32:39.992Z,32.30
2023-07-04T04:35:09.533Z,34.28
2023-07-04T04:37:36.926Z,33.83
2023-07-04T04:40:07.969Z,35.47
2023-07-04T04:42:36.359Z,35.67
2023-07-04T04:45:05.250Z,34.20
2023-07-04T04:47:34.697Z,34.25
2023-07-04T04:50:03.556Z,33.78
2023-07-04T04:52:32.368Z,34.85
2023-07-04T04:55:02.706Z,32.95
2023-07-04T04:57:30.474Z,34.85
2023-07-04T05:00:00.779Z,33.30
2023-07-04T05:02:31.702Z,33.05
2023-07-04T05:05:01.942Z,33.80
2023-07-04T05:07:30.142Z,33.80
2023-07-04T05:09:59.445Z,32.50
2023-07-04T05:12:26.549Z,31.88
2023-07-04T05:14:53.419Z,32.28
2023-07-04T05:17:20.290Z,34.08
2023-07-04T05:19:51.434Z,34.20
2023-07-04T05:22:19.495Z,35.47
2023-07-04T05:24:47.410Z,33.40
2023-07-04T05:27:15.595Z,32.78
2023-07-04T05:29:42.368Z,33.17
2023-07-04T05:32:09.587Z,33.92
2023-07-04T05:34:36.523Z,34.17
2023-07-04T05:37:04.716Z,33.55
2023-07-04T05:39:31.563Z,35.53
2023-07-04T05:41:58.373Z,36.35
2023-07-04T05:44:25.344Z,34.67
2023-07-04T05:46:54.956Z,35.15
2023-07-04T05:49:21.914Z,34.85
2023-07-04T05:51:49.150Z,34.58
2023-07-04T05:54:16.104Z,32.15
2023-07-04T05:56:43.046Z,36.53
2023-07-04T05:59:11.096Z,35.00
2023-07-04T06:01:44.646Z,35.45
2023-07-04T06:04:13.148Z,33.25
2023-07-04T06:06:43.401Z,32.88
2023-07-04T06:09:14.496Z,33.78
2023-07-04T06:11:47.126Z,35.27
2023-07-04T06:14:25.787Z,34.80
2023-07-04T06:16:53.251Z,34.42
2023-07-04T06:19:22.789Z,35.15
2023-07-04T06:21:49.630Z,35.72
2023-07-04T06:24:17.679Z,37.03
2023-07-04T06:26:45.718Z,53.00
2023-07-04T06:29:12.608Z,36.05
2023-07-04T06:31:44.176Z,33.45
2023-07-04T06:34:12.975Z,40.13
2023-07-04T06:36:40.227Z,41.10
2023-07-04T06:39:07.505Z,35.30
2023-07-04T06:41:34.328Z,31.67
2023-07-04T06:44:01.243Z,32.30
2023-07-04T06:46:28.037Z,34.63
2023-07-04T06:48:54.832Z,35.35
2023-07-04T06:51:22.258Z,33.35
2023-07-04T06:53:49.366Z,33.45
2023-07-04T06:56:22.360Z,32.28
2023-07-04T06:58:56.425Z,46.30
2023-07-04T07:01:28.670Z,34.17
2023-07-04T07:03:57.261Z,33.13
2023-07-04T07:06:26.401Z,32.33
2023-07-04T07:08:53.920Z,34.05
2023-07-04T07:11:22.544Z,31.45
2023-07-04T07:13:50.998Z,35.10
2023-07-04T07:16:24.601Z,33.70
2023-07-04T07:18:53.819Z,34.95
2023-07-04T07:21:24.295Z,37.17
2023-07-04T07:23:56.643Z,37.10
2023-07-04T07:26:26.847Z,38.25
2023-07-04T07:28:55.487Z,33.00
2023-07-04T07:31:32.875Z,31.90
2023-07-04T07:34:01.507Z,33.45
2023-07-04T07:36:39.188Z,33.78
2023-07-04T07:39:09.864Z,33.45
2023-07-04T07:41:41.204Z,31.67
2023-07-04T07:44:09.458Z,35.05
2023-07-04T07:46:36.685Z,34.33
2023-07-04T07:49:04.414Z,32.58
2023-07-04T07:51:31.294Z,34.28
2023-07-04T07:53:59.983Z,31.80
2023-07-04T07:56:32.266Z,32.78
2023-07-04T07:58:59.279Z,36.25
2023-07-04T08:01:30.433Z,33.88
2023-07-04T08:03:58.558Z,33.67
2023-07-04T08:06:49.081Z,36.83
2023-07-04T08:09:18.530Z,34.85
2023-07-04T08:11:52.418Z,35.00
2023-07-04T08:14:20.275Z,33.80
2023-07-04T08:16:55.121Z,32.50
2023-07-04T08:19:25.149Z,35.30
2023-07-04T08:21:54.270Z,35.63
2023-07-04T08:24:21.101Z,31.92
2023-07-04T08:26:48.646Z,33.55
2023-07-04T08:29:16.018Z,35.13
2023-07-04T08:31:43.072Z,33.92
2023-07-04T08:34:13.376Z,31.92
2023-07-04T08:36:45.472Z,35.25
2023-07-04T08:39:12.725Z,34.95
2023-07-04T08:41:58.253Z,33.35
2023-07-04T08:44:36.080Z,31.60
2023-07-04T08:47:03.451Z,36.50
2023-07-04T08:49:39.622Z,32.60
2023-07-04T08:52:15.378Z,30.17
2023-07-04T08:54:42.347Z,30.40
2023-07-04T08:57:41.204Z,34.08
2023-07-04T09:00:15.228Z,36.22
2023-07-04T09:03:09.803Z,34.13
2023-07-04T09:06:21.106Z,35.72
2023-07-04T09:09:21.919Z,32.97
2023-07-04T09:11:50.131Z,37.97
2023-07-04T09:14:33.668Z,34.60
2023-07-04T09:17:05.188Z,33.95
2023-07-04T09:19:36.914Z,33.30
2023-07-04T09:24:34.341Z,32.97
2023-07-04T09:27:03.512Z,32.30
2023-07-04T09:29:31.785Z,33.22
2023-07-04T09:32:02.388Z,33.70
2023-07-04T09:34:34.305Z,33.90
2023-07-04T09:37:10.102Z,32.35
2023-07-04T09:39:56.876Z,33.50
2023-07-04T09:42:47.111Z,33.35
2023-07-04T09:45:22.767Z,32.13
2023-07-04T09:47:49.919Z,33.17
2023-07-04T09:50:22.812Z,33.28
2023-07-04T09:53:03.604Z,31.73
2023-07-04T09:55:30.629Z,32.90
2023-07-04T09:58:24.447Z,30.63
2023-07-04T10:01:22.535Z,30.67
2023-07-04T10:03:50.521Z,31.05
2023-07-04T10:06:37.905Z,30.17
2023-07-04T10:09:19.373Z,30.33
2023-07-04T10:11:48.766Z,28.63
2023-07-04T10:14:17.212Z,31.15
2023-07-04T10:16:52.008Z,30.60
2023-07-04T10:19:24.340Z,30.67
2023-07-04T10:21:53.759Z,29.75
2023-07-04T10:24:27.429Z,28.90
2023-07-04T10:27:09.465Z,29.55
2023-07-04T10:29:40.306Z,32.28
2023-07-04T10:32:14.514Z,30.77
2023-07-04T10:34:44.325Z,30.00
2023-07-04T10:37:22.758Z,28.52
2023-07-04T10:39:56.027Z,30.45
2023-07-04T10:42:32.446Z,31.42
2023-07-04T10:45:00.404Z,30.10
2023-07-04T10:47:32.880Z,31.27
2023-07-04T10:50:06.812Z,30.15
2023-07-04T10:52:37.733Z,29.90
2023-07-04T10:55:05.476Z,28.07
2023-07-04T10:57:38.173Z,40.00
2023-07-04T11:00:25.441Z,30.80
2023-07-04T11:02:57.285Z,32.83
2023-07-04T11:05:33.776Z,34.08
2023-07-04T11:08:01.239Z,32.35
2023-07-04T11:10:29.390Z,35.65
2023-07-04T11:12:58.011Z,31.23
2023-07-04T11:15:57.294Z,32.25
2023-07-04T11:18:33.229Z,33.22
2023-07-04T11:21:17.517Z,32.13
2023-07-04T11:23:55.016Z,33.88
2023-07-04T11:26:50.616Z,31.50
2023-07-04T11:29:21.780Z,35.33
2023-07-04T11:32:03.897Z,33.10
2023-07-04T11:34:55.103Z,32.78
2023-07-04T11:37:29.463Z,32.35
2023-07-04T11:39:58.475Z,33.13
2023-07-04T11:42:56.527Z,32.17
2023-07-04T11:45:23.949Z,33.47
2023-07-04T11:48:05.816Z,30.73
2023-07-04T11:50:45.175Z,31.65
2023-07-04T11:53:26.010Z,34.15
2023-07-04T11:56:27.671Z,32.83
2023-07-04T11:59:12.623Z,32.80
2023-07-04T12:02:28.511Z,31.75
2023-07-04T12:04:55.935Z,32.95
2023-07-04T12:07:47.573Z,31.27
2023-07-04T12:10:20.530Z,31.15
2023-07-04T12:12:57.384Z,32.67
2023-07-04T12:15:31.092Z,33.70
2023-07-04T12:18:00.760Z,32.83
2023-07-04T12:20:29.845Z,32.72
2023-07-04T12:23:02.193Z,28.60
2023-07-04T12:25:36.070Z,32.30
2023-07-04T12:28:05.040Z,33.95
2023-07-04T12:33:05.407Z,31.55
2023-07-04T12:35:39.645Z,32.17
2023-07-04T12:38:08.330Z,33.70
2023-07-04T12:40:35.515Z,32.70
2023-07-04T12:45:34.493Z,30.65
2023-07-04T12:50:36.091Z,35.35
2023-07-04T12:53:04.139Z,34.08
2023-07-04T12:55:36.860Z,32.30
2023-07-04T12:58:06.796Z,34.42
2023-07-04T13:00:38.627Z,32.60
2023-07-04T13:03:11.752Z,32.35
2023-07-04T13:05:45.256Z,30.67
2023-07-04T13:08:16.142Z,33.38
2023-07-04T13:10:43.853Z,32.33
2023-07-04T13:13:32.728Z,35.65
2023-07-04T13:16:29.853Z,33.00
2023-07-04T13:19:17.584Z,32.53
2023-07-04T13:21:48.937Z,34.10
2023-07-04T13:27:12.340Z,35.42
2023-07-04T13:35:37.060Z,30.88
2023-07-04T13:45:41.175Z,32.03
2023-07-04T13:48:08.345Z,32.78
2023-07-04T13:50:35.876Z,31.88
2023-07-04T13:53:14.954Z,31.67
2023-07-04T13:55:43.731Z,32.90
2023-07-04T13:58:11.005Z,31.35
2023-07-04T14:01:58.978Z,32.00
2023-07-04T14:05:58.818Z,30.80
2023-07-04T14:08:31.795Z,30.88
2023-07-04T14:11:12.858Z,31.88
2023-07-04T14:13:40.625Z,32.97
2023-07-04T14:21:13.636Z,31.80
2023-07-04T14:23:40.823Z,30.58
2023-07-04T14:26:22.518Z,28.92
2023-07-04T14:28:53.566Z,31.52
2023-07-04T14:31:20.814Z,34.10
2023-07-04T14:33:51.189Z,31.73
2023-07-04T14:36:18.442Z,30.38
2023-07-04T14:38:45.478Z,32.35
2023-07-04T14:43:45.668Z,29.70
2023-07-04T14:46:12.623Z,31.97
2023-07-04T14:48:40.816Z,29.95
2023-07-04T14:51:14.036Z,32.13
2023-07-04T14:53:43.177Z,32.00
2023-07-04T14:56:13.376Z,32.65
2023-07-04T14:58:40.863Z,31.27
2023-07-04T15:01:08.615Z,32.45
2023-07-04T15:03:36.269Z,29.88
2023-07-04T15:06:07.657Z,29.48
2023-07-04T15:08:36.892Z,30.38
2023-07-04T15:11:05.108Z,30.00
2023-07-04T15:13:32.989Z,32.33
2023-07-04T15:16:05.882Z,28.70
2023-07-04T15:18:38.333Z,32.53
2023-07-04T15:21:07.786Z,32.25
2023-07-04T15:23:35.309Z,33.72
2023-07-04T15:26:20.310Z,30.58
2023-07-04T15:28:50.224Z,30.83
2023-07-04T15:31:17.354Z,31.35
2023-07-04T15:33:44.482Z,30.85
2023-07-04T15:36:11.763Z,30.63
2023-07-04T15:38:38.942Z,31.90
2023-07-04T15:41:08.348Z,32.20
2023-07-04T15:43:37.376Z,32.70
2023-07-04T15:46:08.592Z,33.55
2023-07-04T15:48:36.352Z,33.35
2023-07-04T15:51:04.912Z,32.25
2023-07-04T15:53:32.454Z,33.03
2023-07-04T15:56:01.379Z,32.95
2023-07-04T15:58:29.015Z,32.55
2023-07-04T16:00:58.040Z,32.15
2023-07-04T16:03:26.098Z,31.42
2023-07-04T16:05:57.750Z,32.13
2023-07-04T16:08:26.959Z,31.08
2023-07-04T16:11:02.330Z,32.75
2023-07-04T16:13:29.495Z,37.63
2023-07-04T16:15:56.751Z,32.03
2023-07-04T16:18:24.371Z,32.72
2023-07-04T16:20:55.295Z,34.15
2023-07-04T16:23:22.437Z,37.33
2023-07-04T16:25:49.188Z,34.53
2023-07-04T16:28:16.310Z,35.83
2023-07-04T16:30:44.502Z,32.30
2023-07-04T16:33:13.091Z,34.20
2023-07-04T16:35:42.293Z,28.17
2023-07-04T16:38:10.291Z,27.40
2023-07-04T16:40:39.040Z,29.08
2023-07-04T16:43:05.894Z,31.50
2023-07-04T16:45:32.740Z,34.00
2023-07-04T16:48:03.377Z,31.92
2023-07-04T16:50:32.656Z,35.22
2023-07-04T16:53:01.312Z,34.72
2023-07-04T16:55:29.873Z,33.90
2023-07-04T16:57:56.740Z,33.20
2023-07-04T17:00:26.193Z,33.90
2023-07-04T17:02:54.023Z,39.80
2023-07-04T17:05:21.091Z,38.95
2023-07-04T17:07:48.235Z,33.78
2023-07-04T17:10:15.240Z,38.00
2023-07-04T17:12:42.499Z,35.63
2023-07-04T17:15:13.455Z,36.55
2023-07-04T17:17:40.646Z,35.22
2023-07-04T17:20:09.240Z,32.50
2023-07-04T17:22:36.698Z,33.53
2023-07-04T17:25:13.593Z,35.50
2023-07-04T17:27:42.184Z,32.03
2023-07-04T17:30:10.770Z,35.75
2023-07-04T17:32:38.669Z,33.00
2023-07-04T17:35:07.479Z,31.20
2023-07-04T17:37:34.697Z,33.03
2023-07-04T17:40:01.795Z,32.05
2023-07-04T17:42:31.972Z,37.00
2023-07-04T17:45:00.135Z,35.78
2023-07-04T17:47:30.669Z,36.97
2023-07-04T17:49:59.569Z,34.10
2023-07-04T17:52:29.951Z,38.05
2023-07-04T17:54:58.913Z,33.90
2023-07-04T17:57:28.629Z,35.95
2023-07-04T17:59:56.576Z,33.35
2023-07-04T18:02:23.806Z,39.80
2023-07-04T18:04:55.469Z,35.28
2023-07-04T18:07:24.649Z,37.58
2023-07-04T18:09:56.379Z,39.72
2023-07-04T18:12:28.380Z,39.53
2023-07-04T18:14:55.969Z,36.13
2023-07-04T18:17:23.071Z,36.30
2023-07-04T18:19:57.056Z,37.80
2023-07-04T18:22:26.346Z,40.58
2023-07-04T18:24:54.778Z,37.30
2023-07-04T18:27:24.861Z,42.22
2023-07-04T18:29:53.312Z,33.60
2023-07-04T18:32:21.226Z,38.78
2023-07-04T18:34:48.419Z,44.60
2023-07-04T18:37:15.925Z,33.35
2023-07-04T18:39:42.922Z,34.65
2023-07-04T18:42:09.930Z,34.33
2023-07-04T18:44:36.974Z,35.40
2023-07-04T18:47:04.262Z,40.15
2023-07-04T18:49:31.350Z,32.92
2023-07-04T18:51:59.643Z,35.53
2023-07-04T18:54:29.774Z,35.58
2023-07-04T18:56:57.179Z,38.58
2023-07-04T18:59:25.644Z,37.47
2023-07-04T19:01:55.256Z,35.85
2023-07-04T19:04:22.511Z,37.75
2023-07-04T19:06:51.088Z,35.17
2023-07-04T19:09:18.720Z,40.00
2023-07-04T19:11:46.556Z,33.70
2023-07-04T19:14:20.054Z,37.55
2023-07-04T19:16:56.276Z,35.85
2023-07-04T19:19:36.321Z,37.10
2023-07-04T19:22:06.903Z,34.78
2023-07-04T19:24:36.385Z,35.30
2023-07-04T19:27:04.127Z,34.88
2023-07-04T19:29:31.523Z,40.28
2023-07-04T19:32:01.375Z,39.53
2023-07-04T19:34:30.753Z,42.00
2023-07-04T19:36:58.608Z,40.03
2023-07-04T19:39:27.756Z,37.00
2023-07-04T19:41:55.126Z,43.05
2023-07-04T19:44:22.228Z,39.97
2023-07-04T19:46:49.256Z,43.95
2023-07-04T19:49:16.501Z,39.78
2023-07-04T19:51:43.737Z,41.40
2023-07-04T19:54:10.919Z,36.28
2023-07-04T19:56:38.021Z,38.47
2023-07-04T19:59:05.875Z,35.78
2023-07-04T20:01:35.736Z,40.97
2023-07-04T20:04:04.292Z,38.17
2023-07-04T20:06:33.533Z,42.65
2023-07-04T20:09:00.633Z,42.50
2023-07-04T20:11:27.585Z,46.00
2023-07-04T20:13:54.567Z,42.80
2023-07-04T20:16:39.769Z,49.25
2023-07-04T20:19:08.579Z,41.70
2023-07-04T20:21:37.662Z,45.33
2023-07-04T20:24:05.967Z,41.47
2023-07-04T20:26:32.919Z,44.90
2023-07-04T20:28:59.961Z,42.60
2023-07-04T20:31:27.125Z,41.92
2023-07-04T20:33:54.059Z,47.25
2023-07-04T20:36:20.973Z,43.38
2023-07-04T20:38:49.394Z,42.80
2023-07-04T20:41:16.656Z,47.45
2023-07-04T20:43:43.570Z,39.65
2023-07-04T20:46:13.204Z,41.55
2023-07-04T20:48:42.947Z,42.22
2023-07-04T20:51:13.592Z,41.88
2023-07-04T20:53:41.122Z,42.17
2023-07-04T20:56:09.613Z,45.00
2023-07-04T20:58:36.766Z,39.33
2023-07-04T21:01:04.089Z,40.75
2023-07-04T21:03:31.493Z,42.75
2023-07-04T21:06:03.588Z,40.28
2023-07-04T21:08:30.501Z,42.00
2023-07-04T21:11:06.730Z,41.13
2023-07-04T21:13:37.221Z,43.72
2023-07-04T21:16:11.573Z,39.85
2023-07-04T21:18:39.257Z,41.67
2023-07-04T21:21:06.809Z,41.25
2023-07-04T21:23:38.167Z,42.88
2023-07-04T21:26:08.613Z,41.58
2023-07-04T21:28:36.508Z,41.25
2023-07-04T21:31:10.130Z,42.72
2023-07-04T21:33:39.836Z,41.55
2023-07-04T21:36:07.654Z,42.50
2023-07-04T21:38:37.148Z,38.63
2023-07-04T21:41:05.418Z,43.38
2023-07-04T21:43:32.742Z,46.47
2023-07-04T21:46:00.529Z,45.35
2023-07-04T21:48:28.700Z,44.95
2023-07-04T21:50:57.473Z,41.72
2023-07-04T21:53:30.080Z,42.72
2023-07-04T21:56:05.196Z,39.70
2023-07-04T21:58:33.360Z,42.42
2023-07-04T22:01:05.380Z,42.30
2023-07-04T22:03:35.452Z,42.03
2023-07-04T22:06:10.502Z,40.92
2023-07-04T22:08:39.355Z,39.58
2023-07-04T22:11:09.214Z,41.50
2023-07-04T22:13:36.484Z,39.42
2023-07-04T22:16:08.328Z,37.42
2023-07-04T22:18:36.248Z,39.70
2023-07-04T22:21:06.196Z,41.75
2023-07-04T22:23:33.497Z,43.03
2023-07-04T22:26:00.702Z,42.75
2023-07-04T22:28:28.687Z,40.72
2023-07-04T22:31:02.038Z,40.60
2023-07-04T22:33:31.823Z,40.95
2023-07-04T22:36:00.139Z,43.75
2023-07-04T22:38:26.973Z,39.60
2023-07-04T22:40:53.923Z,41.83
2023-07-04T22:43:21.295Z,48.15
2023-07-04T22:45:54.651Z,40.20
2023-07-04T22:48:21.742Z,41.10
2023-07-04T22:50:48.845Z,39.45
2023-07-04T22:53:15.806Z,38.85
2023-07-04T22:55:45.025Z,39.63
2023-07-04T22:58:13.205Z,40.20
2023-07-04T23:00:45.095Z,42.58
2023-07-04T23:05:44.531Z,41.90
2023-07-04T23:08:13.494Z,41.47
2023-07-04T23:10:40.484Z,40.38
2023-07-04T23:13:07.317Z,36.40
2023-07-04T23:15:34.264Z,39.58
2023-07-04T23:18:01.317Z,40.42
2023-07-04T23:20:28.310Z,41.83
2023-07-04T23:22:55.207Z,39.05
2023-07-04T23:25:22.134Z,39.08
2023-07-04T23:27:49.071Z,36.35
2023-07-04T23:30:16.012Z,39.35
2023-07-04T23:32:43.307Z,36.35
2023-07-04T23:35:10.608Z,37.50
2023-07-04T23:37:37.791Z,38.50
2023-07-04T23:40:06.570Z,38.85
2023-07-04T23:42:34.885Z,42.88
2023-07-04T23:45:01.984Z,37.13
2023-07-04T23:47:29.078Z,44.15
2023-07-04T23:49:56.028Z,37.75
2023-07-04T23:52:22.947Z,37.97
2023-07-04T23:54:49.988Z,30.77
2023-07-04T23:57:16.999Z,33.08
2023-07-04T23:59:44.708Z,32.05
